createdAt,value
2018-05-21T00:00:23.817Z,99.80
2018-05-21T00:01:27.974Z,99.90
2018-05-21T00:02:32.176Z,99.90
2018-05-21T00:03:36.324Z,99.90
2018-05-21T00:04:40.476Z,99.90
2018-05-21T00:05:45.395Z,99.90
2018-05-21T00:06:49.549Z,99.90
2018-05-21T00:07:53.825Z,99.90
2018-05-21T00:08:57.991Z,99.90
2018-05-21T00:10:02.145Z,99.90
2018-05-21T00:11:07.061Z,99.90
2018-05-21T00:12:11.971Z,99.90
2018-05-21T00:13:16.151Z,99.90
2018-05-21T00:14:20.310Z,99.90
2018-05-21T00:15:25.217Z,99.90
2018-05-21T00:16:29.364Z,99.90
2018-05-21T00:17:33.501Z,99.90
2018-05-21T00:18:37.785Z,99.90
2018-05-21T00:19:41.939Z,99.90
2018-05-21T00:20:46.085Z,99.90
2018-05-21T00:21:51.042Z,99.90
2018-05-21T00:22:55.212Z,99.90
2018-05-21T00:23:59.396Z,99.90
2018-05-21T00:25:03.822Z,99.90
2018-05-21T00:26:07.965Z,99.90
2018-05-21T00:27:12.872Z,99.90
2018-05-21T00:28:17.291Z,99.90
2018-05-21T00:29:21.453Z,99.90
2018-05-21T00:30:25.604Z,99.90
2018-05-21T00:31:29.754Z,99.90
2018-05-21T00:32:33.901Z,99.90
2018-05-21T00:33:38.068Z,99.90
2018-05-21T00:34:42.239Z,99.90
2018-05-21T00:35:46.384Z,99.90
2018-05-21T00:36:50.532Z,99.90
2018-05-21T00:37:54.689Z,99.90
2018-05-21T00:38:58.918Z,99.90
2018-05-21T00:40:03.085Z,99.90
2018-05-21T00:41:07.241Z,99.90
2018-05-21T00:42:11.380Z,99.90
2018-05-21T00:43:15.612Z,99.90
2018-05-21T00:44:20.606Z,99.90
2018-05-21T00:45:24.758Z,99.90
2018-05-21T00:46:29.729Z,99.90
2018-05-21T00:47:33.894Z,99.90
2018-05-21T00:48:38.049Z,99.90
2018-05-21T00:49:42.241Z,99.90
2018-05-21T00:50:47.345Z,99.90
2018-05-21T00:51:51.496Z,99.90
2018-05-21T00:52:55.637Z,99.90
2018-05-21T00:53:59.781Z,99.90
2018-05-21T00:55:22.462Z,99.90
2018-05-21T00:56:26.638Z,99.90
2018-05-21T00:57:30.788Z,99.90
2018-05-21T00:58:34.932Z,99.90
2018-05-21T00:59:39.082Z,99.90
2018-05-21T01:00:43.315Z,99.90
2018-05-21T01:01:47.461Z,99.90
2018-05-21T01:02:51.632Z,99.90
2018-05-21T01:03:55.790Z,99.90
2018-05-21T01:04:59.942Z,99.90
2018-05-21T01:06:04.094Z,99.90
2018-05-21T01:07:08.257Z,99.90
2018-05-21T01:08:12.541Z,99.90
2018-05-21T01:09:16.693Z,99.90
2018-05-21T01:10:20.868Z,99.90
2018-05-21T01:11:25.013Z,99.90
2018-05-21T01:12:29.169Z,99.90
2018-05-21T01:13:33.341Z,99.90
2018-05-21T01:14:37.508Z,99.90
2018-05-21T01:15:41.724Z,99.90
2018-05-21T01:16:45.831Z,99.90
2018-05-21T01:17:50.803Z,99.90
2018-05-21T01:18:55.694Z,99.90
2018-05-21T01:20:00.613Z,99.90
2018-05-21T01:21:05.525Z,99.90
2018-05-21T01:22:09.675Z,99.90
2018-05-21T01:23:13.854Z,99.90
2018-05-21T01:24:18.003Z,99.90
2018-05-21T01:25:22.297Z,99.90
2018-05-21T01:26:26.446Z,99.90
2018-05-21T01:27:30.602Z,99.90
2018-05-21T01:28:35.523Z,99.90
2018-05-21T01:29:40.444Z,99.90
2018-05-21T01:30:44.671Z,99.90
2018-05-21T01:31:49.602Z,99.90
2018-05-21T01:32:54.531Z,99.90
2018-05-21T01:33:58.673Z,99.90
2018-05-21T01:35:02.886Z,99.90
2018-05-21T01:36:07.161Z,99.90
2018-05-21T01:37:12.073Z,99.90
2018-05-21T01:38:17.850Z,99.90
2018-05-21T01:39:22.007Z,99.90
2018-05-21T01:40:26.166Z,99.90
2018-05-21T01:41:30.377Z,99.90
2018-05-21T01:42:34.526Z,99.90
2018-05-21T01:43:38.677Z,99.90
2018-05-21T01:44:42.849Z,99.90
2018-05-21T01:45:46.997Z,99.90
2018-05-21T01:46:51.933Z,99.90
2018-05-21T01:47:56.910Z,99.90
2018-05-21T01:49:01.070Z,99.90
2018-05-21T01:50:05.993Z,99.90
2018-05-21T01:51:10.935Z,99.90
2018-05-21T01:52:16.041Z,99.90
2018-05-21T01:53:21.366Z,99.90
2018-05-21T01:54:25.585Z,99.90
2018-05-21T01:55:29.742Z,99.90
2018-05-21T01:56:33.893Z,99.90
2018-05-21T01:57:38.820Z,99.90
2018-05-21T01:58:43.002Z,99.90
2018-05-21T01:59:47.158Z,99.90
2018-05-21T02:00:52.060Z,99.90
2018-05-21T02:01:56.225Z,99.90
2018-05-21T02:03:00.387Z,99.90
2018-05-21T02:04:04.555Z,99.90
2018-05-21T02:05:08.700Z,99.90
2018-05-21T02:06:12.848Z,99.90
2018-05-21T02:07:16.998Z,99.90
2018-05-21T02:08:21.234Z,99.90
2018-05-21T02:09:25.398Z,99.90
2018-05-21T02:10:29.556Z,99.90
2018-05-21T02:11:33.713Z,99.90
2018-05-21T02:12:37.866Z,99.90
2018-05-21T02:13:42.510Z,99.90
2018-05-21T02:14:46.719Z,99.90
2018-05-21T02:15:51.630Z,99.90
2018-05-21T02:16:55.785Z,99.90
2018-05-21T02:17:59.936Z,99.90
2018-05-21T02:19:04.574Z,99.90
2018-05-21T02:20:08.809Z,99.90
2018-05-21T02:21:12.905Z,99.90
2018-05-21T02:22:17.817Z,99.90
2018-05-21T02:23:21.968Z,99.90
2018-05-21T02:24:26.142Z,99.90
2018-05-21T02:25:30.297Z,99.90
2018-05-21T02:26:34.473Z,99.90
2018-05-21T02:27:38.633Z,99.90
2018-05-21T02:28:42.792Z,99.90
2018-05-21T02:29:47.711Z,99.90
2018-05-21T02:30:51.856Z,99.90
2018-05-21T02:31:56.430Z,99.90
2018-05-21T02:33:00.590Z,99.90
2018-05-21T02:34:04.745Z,99.90
2018-05-21T02:35:08.917Z,99.90
2018-05-21T02:36:13.065Z,99.90
2018-05-21T02:37:17.653Z,99.90
2018-05-21T02:38:21.805Z,99.90
2018-05-21T02:39:26.726Z,99.90
2018-05-21T02:40:30.952Z,99.90
2018-05-21T02:41:35.861Z,99.90
2018-05-21T02:42:40.039Z,99.90
2018-05-21T02:43:44.191Z,99.90
2018-05-21T02:44:49.110Z,99.90
2018-05-21T02:45:53.335Z,99.90
2018-05-21T02:46:58.272Z,99.90
2018-05-21T02:48:03.193Z,99.90
2018-05-21T02:49:08.174Z,99.90
2018-05-21T02:50:12.317Z,99.90
2018-05-21T02:51:16.469Z,99.90
2018-05-21T02:52:20.670Z,99.90
2018-05-21T02:53:24.817Z,99.90
2018-05-21T02:54:29.040Z,99.90
2018-05-21T02:55:33.211Z,99.90
2018-05-21T02:56:37.352Z,99.90
2018-05-21T02:57:41.501Z,99.90
2018-05-21T02:58:46.415Z,99.90
2018-05-21T02:59:50.688Z,99.90
2018-05-21T03:00:54.925Z,99.90
2018-05-21T03:01:59.081Z,99.90
2018-05-21T03:03:03.228Z,99.90
2018-05-21T03:04:07.382Z,99.90
2018-05-21T03:05:12.321Z,99.90
2018-05-21T03:06:17.229Z,99.90
2018-05-21T03:07:22.132Z,99.90
2018-05-21T03:08:26.302Z,99.90
2018-05-21T03:09:30.808Z,99.90
2018-05-21T03:10:34.958Z,99.90
2018-05-21T03:11:39.118Z,99.90
2018-05-21T03:12:43.264Z,99.90
2018-05-21T03:13:47.404Z,99.90
2018-05-21T03:14:51.587Z,99.90
2018-05-21T03:15:55.733Z,99.90
2018-05-21T03:16:59.872Z,99.90
2018-05-21T03:18:04.021Z,99.90
2018-05-21T03:19:08.188Z,99.90
2018-05-21T03:20:12.338Z,99.90
2018-05-21T03:21:16.537Z,99.90
2018-05-21T03:22:20.697Z,99.90
2018-05-21T03:23:25.613Z,99.90
2018-05-21T03:24:29.764Z,99.90
2018-05-21T03:25:33.929Z,99.90
2018-05-21T03:26:38.209Z,99.90
2018-05-21T03:27:42.354Z,99.90
2018-05-21T03:28:46.505Z,99.90
2018-05-21T03:29:50.645Z,99.90
2018-05-21T03:30:54.796Z,99.90
2018-05-21T03:32:00.148Z,99.90
2018-05-21T03:33:04.306Z,99.90
2018-05-21T03:34:08.464Z,99.90
2018-05-21T03:35:13.379Z,99.90
2018-05-21T03:36:18.299Z,99.90
2018-05-21T03:37:22.485Z,99.90
2018-05-21T03:38:26.653Z,99.90
2018-05-21T03:39:30.960Z,99.90
2018-05-21T03:40:35.123Z,99.90
2018-05-21T03:41:39.276Z,99.90
2018-05-21T03:42:43.437Z,99.90
2018-05-21T03:43:47.592Z,99.90
2018-05-21T03:44:51.844Z,99.90
2018-05-21T03:45:55.990Z,99.90
2018-05-21T03:47:00.148Z,99.90
2018-05-21T03:48:04.298Z,99.90
2018-05-21T03:49:09.215Z,99.90
2018-05-21T03:50:13.394Z,99.90
2018-05-21T03:51:17.593Z,99.90
2018-05-21T03:52:21.740Z,99.90
2018-05-21T03:53:25.893Z,99.90
2018-05-21T03:54:30.041Z,99.90
2018-05-21T03:55:34.191Z,99.90
2018-05-21T03:56:38.369Z,99.90
2018-05-21T03:57:42.519Z,99.90
2018-05-21T03:59:05.110Z,99.90
2018-05-21T04:02:10.548Z,99.90
2018-05-21T04:03:32.481Z,99.90
2018-05-21T04:04:36.665Z,99.90
2018-05-21T04:05:41.578Z,99.90
2018-05-21T04:06:46.498Z,99.90
2018-05-21T04:07:50.653Z,99.90
2018-05-21T04:08:54.813Z,99.90
2018-05-21T04:09:58.973Z,99.90
2018-05-21T04:11:03.185Z,99.90
2018-05-21T04:12:07.353Z,99.90
2018-05-21T04:13:11.506Z,99.90
2018-05-21T04:14:15.658Z,99.90
2018-05-21T04:15:19.808Z,99.90
2018-05-21T04:16:24.029Z,99.90
2018-05-21T04:17:28.177Z,99.90
2018-05-21T04:18:32.317Z,99.90
2018-05-21T04:19:37.228Z,99.90
2018-05-21T04:20:41.382Z,99.90
2018-05-21T04:21:45.581Z,99.90
2018-05-21T04:22:49.729Z,99.90
2018-05-21T04:23:53.886Z,99.90
2018-05-21T04:24:58.817Z,99.90
2018-05-21T04:26:03.762Z,99.90
2018-05-21T04:27:07.949Z,99.90
2018-05-21T04:28:12.154Z,99.90
2018-05-21T04:29:16.305Z,99.90
2018-05-21T04:30:20.451Z,99.90
2018-05-21T04:31:24.604Z,99.90
2018-05-21T04:32:29.512Z,99.90
2018-05-21T04:33:33.681Z,99.90
2018-05-21T04:34:38.157Z,99.90
2018-05-21T04:35:43.081Z,99.90
2018-05-21T04:36:47.993Z,99.90
2018-05-21T04:37:52.139Z,99.90
2018-05-21T04:38:56.291Z,99.90
2018-05-21T04:40:00.462Z,99.90
2018-05-21T04:41:04.625Z,99.90
2018-05-21T04:42:08.773Z,99.90
2018-05-21T04:43:12.936Z,99.90
2018-05-21T04:44:17.094Z,99.90
2018-05-21T04:45:21.246Z,99.90
2018-05-21T04:46:25.402Z,99.90
2018-05-21T04:47:29.557Z,99.70
2018-05-21T04:48:34.102Z,99.70
2018-05-21T04:49:39.756Z,99.60
2018-05-21T04:50:44.673Z,99.30
2018-05-21T04:51:48.895Z,99.30
2018-05-21T04:52:53.800Z,99.40
2018-05-21T04:53:58.454Z,99.40
2018-05-21T04:55:03.362Z,99.90
2018-05-21T04:56:08.276Z,99.90
2018-05-21T04:57:12.430Z,99.90
2018-05-21T04:58:16.573Z,99.90
2018-05-21T04:59:20.861Z,99.90
2018-05-21T05:00:25.003Z,99.90
2018-05-21T05:01:29.162Z,99.90
2018-05-21T05:02:33.315Z,99.90
2018-05-21T05:03:38.228Z,99.90
2018-05-21T05:04:42.433Z,99.90
2018-05-21T05:05:46.577Z,99.90
2018-05-21T05:06:50.741Z,99.90
2018-05-21T05:07:54.879Z,99.90
2018-05-21T05:08:59.021Z,99.90
2018-05-21T05:10:03.960Z,99.90
2018-05-21T05:11:08.864Z,99.90
2018-05-21T05:12:13.034Z,99.90
2018-05-21T05:13:17.184Z,99.90
2018-05-21T05:14:21.344Z,99.90
2018-05-21T05:15:25.620Z,99.90
2018-05-21T05:16:29.772Z,99.90
2018-05-21T05:17:33.917Z,99.90
2018-05-21T05:18:38.078Z,99.90
2018-05-21T05:19:42.225Z,99.90
2018-05-21T05:20:46.403Z,99.90
2018-05-21T05:21:50.563Z,99.90
2018-05-21T05:22:54.728Z,99.90
2018-05-21T05:23:58.880Z,99.90
2018-05-21T05:25:03.029Z,99.90
2018-05-21T05:26:07.214Z,99.90
2018-05-21T05:27:11.786Z,99.90
2018-05-21T05:28:15.933Z,99.90
2018-05-21T05:29:20.082Z,99.90
2018-05-21T05:30:24.225Z,99.90
2018-05-21T05:31:28.377Z,99.90
2018-05-21T05:32:33.419Z,99.90
2018-05-21T05:33:38.353Z,99.90
2018-05-21T05:34:42.510Z,99.90
2018-05-21T05:35:46.662Z,99.90
2018-05-21T05:36:51.585Z,99.90
2018-05-21T05:37:56.529Z,99.90
2018-05-21T05:39:00.714Z,99.90
2018-05-21T05:40:04.925Z,99.90
2018-05-21T05:41:09.841Z,99.90
2018-05-21T05:42:13.994Z,99.90
2018-05-21T05:43:18.142Z,99.90
2018-05-21T05:44:22.294Z,99.90
2018-05-21T05:45:26.877Z,99.90
2018-05-21T05:46:31.039Z,99.90
2018-05-21T05:47:35.185Z,99.90
2018-05-21T05:48:39.338Z,99.90
2018-05-21T05:49:44.249Z,99.90
2018-05-21T05:50:48.416Z,99.90
2018-05-21T05:51:52.557Z,99.90
2018-05-21T05:52:56.714Z,99.90
2018-05-21T05:54:00.862Z,99.90
2018-05-21T05:55:05.057Z,99.90
2018-05-21T05:56:09.205Z,99.90
2018-05-21T05:57:13.373Z,99.90
2018-05-21T05:58:17.522Z,99.90
2018-05-21T05:59:21.666Z,99.90
2018-05-21T06:00:25.961Z,99.90
2018-05-21T06:01:30.884Z,99.90
2018-05-21T06:02:35.810Z,99.90
2018-05-21T06:03:40.745Z,99.90
2018-05-21T06:04:44.898Z,99.90
2018-05-21T06:05:49.082Z,99.90
2018-05-21T06:06:53.580Z,99.90
2018-05-21T06:07:58.502Z,99.90
2018-05-21T06:09:02.645Z,99.90
2018-05-21T06:10:06.785Z,99.90
2018-05-21T06:11:10.931Z,99.90
2018-05-21T06:12:15.994Z,99.90
2018-05-21T06:13:20.141Z,99.90
2018-05-21T06:14:24.300Z,99.90
2018-05-21T06:15:28.481Z,99.90
2018-05-21T06:16:32.635Z,99.90
2018-05-21T06:17:36.804Z,99.90
2018-05-21T06:18:40.940Z,99.90
2018-05-21T06:19:45.227Z,99.90
2018-05-21T06:20:49.374Z,99.90
2018-05-21T06:21:53.516Z,99.90
2018-05-21T06:22:57.656Z,99.90
2018-05-21T06:24:02.572Z,99.90
2018-05-21T06:25:06.867Z,99.90
2018-05-21T06:26:11.009Z,99.90
2018-05-21T06:27:15.941Z,99.90
2018-05-21T06:28:20.853Z,99.90
2018-05-21T06:29:25.001Z,99.90
2018-05-21T06:30:29.310Z,99.90
2018-05-21T06:31:33.524Z,99.90
2018-05-21T06:32:37.673Z,99.90
2018-05-21T06:33:41.820Z,99.90
2018-05-21T06:34:46.730Z,99.90
2018-05-21T06:35:50.898Z,99.90
2018-05-21T06:36:55.187Z,99.90
2018-05-21T06:37:59.301Z,99.90
2018-05-21T06:39:03.441Z,99.90
2018-05-21T06:40:07.598Z,99.90
2018-05-21T06:41:12.507Z,99.90
2018-05-21T06:42:16.840Z,99.90
2018-05-21T06:43:21.753Z,99.90
2018-05-21T06:44:25.923Z,99.90
2018-05-21T06:45:30.087Z,99.90
2018-05-21T06:46:34.998Z,99.90
2018-05-21T06:47:39.202Z,99.90
2018-05-21T06:48:43.409Z,99.90
2018-05-21T06:49:47.582Z,99.90
2018-05-21T06:50:51.754Z,99.90
2018-05-21T06:51:56.671Z,99.90
2018-05-21T06:53:01.601Z,99.90
2018-05-21T06:54:05.827Z,99.90
2018-05-21T06:55:10.406Z,99.90
2018-05-21T06:56:14.603Z,99.90
2018-05-21T06:57:18.773Z,99.90
2018-05-21T06:58:22.974Z,99.90
2018-05-21T06:59:27.925Z,99.90
2018-05-21T07:00:32.122Z,99.90
2018-05-21T07:01:36.291Z,99.90
2018-05-21T07:02:40.518Z,99.90
2018-05-21T07:03:44.715Z,99.90
2018-05-21T07:04:48.940Z,99.90
2018-05-21T07:05:54.226Z,99.90
2018-05-21T07:06:58.380Z,99.90
2018-05-21T07:08:02.594Z,99.90
2018-05-21T07:09:06.713Z,99.90
2018-05-21T07:10:11.661Z,99.90
2018-05-21T07:11:15.873Z,99.90
2018-05-21T07:12:20.023Z,99.90
2018-05-21T07:13:24.183Z,99.90
2018-05-21T07:14:28.365Z,99.90
2018-05-21T07:15:33.315Z,99.90
2018-05-21T07:16:37.522Z,99.90
2018-05-21T07:17:42.489Z,99.90
2018-05-21T07:18:46.633Z,99.90
2018-05-21T07:19:50.822Z,99.90
2018-05-21T07:20:55.729Z,99.90
2018-05-21T07:21:59.910Z,99.90
2018-05-21T07:23:04.298Z,99.90
2018-05-21T07:24:08.490Z,99.90
2018-05-21T07:25:13.461Z,99.90
2018-05-21T07:26:17.664Z,99.90
2018-05-21T07:27:22.589Z,99.90
2018-05-21T07:28:27.526Z,99.90
2018-05-21T07:29:31.712Z,99.90
2018-05-21T07:30:36.849Z,99.90
2018-05-21T07:31:40.997Z,99.90
2018-05-21T07:32:45.145Z,99.90
2018-05-21T07:33:49.354Z,99.90
2018-05-21T07:34:53.556Z,99.90
2018-05-21T07:35:57.733Z,99.90
2018-05-21T07:37:01.897Z,99.90
2018-05-21T07:38:06.056Z,99.90
2018-05-21T07:39:10.215Z,99.90
2018-05-21T07:40:14.413Z,99.90
2018-05-21T07:41:19.508Z,99.90
2018-05-21T07:42:23.660Z,99.90
2018-05-21T07:43:27.809Z,99.90
2018-05-21T07:44:32.005Z,99.90
2018-05-21T07:45:36.919Z,99.90
2018-05-21T07:46:41.094Z,99.90
2018-05-21T07:47:45.263Z,99.90
2018-05-21T07:48:49.438Z,99.90
2018-05-21T07:49:53.601Z,99.90
2018-05-21T07:50:57.749Z,99.90
2018-05-21T07:52:01.913Z,99.90
2018-05-21T07:53:06.099Z,99.90
2018-05-21T07:54:11.201Z,99.90
2018-05-21T07:55:15.386Z,99.90
2018-05-21T07:56:19.580Z,99.90
2018-05-21T07:57:23.765Z,99.90
2018-05-21T07:58:27.949Z,99.90
2018-05-21T07:59:32.125Z,99.90
2018-05-21T08:00:36.304Z,99.90
2018-05-21T08:01:40.482Z,99.90
2018-05-21T08:02:44.646Z,99.90
2018-05-21T08:03:48.821Z,99.90
2018-05-21T08:04:53.749Z,99.90
2018-05-21T08:05:59.185Z,99.90
2018-05-21T08:07:03.397Z,99.90
2018-05-21T08:08:08.339Z,99.90
2018-05-21T08:09:13.257Z,99.90
2018-05-21T08:10:18.218Z,99.90
2018-05-21T08:11:22.392Z,99.90
2018-05-21T08:12:26.548Z,99.90
2018-05-21T08:13:30.729Z,99.90
2018-05-21T08:14:35.712Z,99.90
2018-05-21T08:15:40.033Z,99.90
2018-05-21T08:16:44.261Z,99.90
2018-05-21T08:17:49.208Z,99.60
2018-05-21T08:18:54.165Z,99.50
2018-05-21T08:19:58.330Z,99.40
2018-05-21T08:21:02.532Z,98.90
2018-05-21T08:22:06.850Z,98.90
2018-05-21T08:23:11.017Z,98.80
2018-05-21T08:24:15.201Z,98.70
2018-05-21T08:25:19.372Z,99.10
2018-05-21T08:26:23.526Z,99.10
2018-05-21T08:27:27.708Z,99.50
2018-05-21T08:28:33.035Z,99.60
2018-05-21T08:29:37.286Z,99.50
2018-05-21T08:30:41.409Z,99.40
2018-05-21T08:31:45.556Z,98.60
2018-05-21T08:32:49.717Z,98.80
2018-05-21T08:33:54.018Z,98.50
2018-05-21T08:34:58.165Z,98.50
2018-05-21T08:36:02.310Z,97.80
2018-05-21T08:37:07.221Z,98.00
2018-05-21T08:38:11.365Z,98.00
2018-05-21T08:39:15.949Z,98.20
2018-05-21T08:40:20.093Z,98.10
2018-05-21T08:41:24.242Z,97.60
2018-05-21T08:42:28.419Z,97.80
2018-05-21T08:43:32.568Z,97.50
2018-05-21T08:44:36.794Z,97.50
2018-05-21T08:45:40.959Z,97.80
2018-05-21T08:46:45.093Z,97.90
2018-05-21T08:47:49.246Z,98.40
2018-05-21T08:48:54.158Z,97.70
2018-05-21T08:49:58.556Z,97.70
2018-05-21T08:51:02.735Z,97.30
2018-05-21T08:52:06.886Z,97.30
2018-05-21T08:53:11.024Z,97.70
2018-05-21T08:54:15.215Z,97.20
2018-05-21T08:55:19.484Z,97.30
2018-05-21T08:56:24.376Z,96.90
2018-05-21T08:57:28.577Z,96.90
2018-05-21T08:58:33.489Z,97.30
2018-05-21T08:59:37.644Z,97.30
2018-05-21T09:00:41.817Z,97.00
2018-05-21T09:01:46.726Z,97.50
2018-05-21T09:02:51.873Z,96.40
2018-05-21T09:03:56.801Z,96.80
2018-05-21T09:05:01.745Z,96.90
2018-05-21T09:06:06.657Z,97.20
2018-05-21T09:07:11.585Z,97.40
2018-05-21T09:08:16.525Z,97.40
2018-05-21T09:09:21.439Z,97.10
2018-05-21T09:10:25.614Z,97.10
2018-05-21T09:11:29.757Z,97.00
2018-05-21T09:12:33.996Z,97.40
2018-05-21T09:13:38.092Z,96.60
2018-05-21T09:14:42.237Z,96.70
2018-05-21T09:15:46.381Z,96.10
2018-05-21T09:16:50.525Z,96.30
2018-05-21T09:17:54.679Z,96.60
2018-05-21T09:18:59.013Z,96.80
2018-05-21T09:20:03.160Z,95.90
2018-05-21T09:21:07.312Z,95.80
2018-05-21T09:22:11.452Z,95.10
2018-05-21T09:23:15.597Z,95.60
2018-05-21T09:24:19.808Z,95.70
2018-05-21T09:25:23.950Z,95.80
2018-05-21T09:26:28.093Z,95.10
2018-05-21T09:27:33.016Z,95.60
2018-05-21T09:28:37.165Z,95.50
2018-05-21T09:29:41.329Z,95.80
2018-05-21T09:30:45.488Z,95.60
2018-05-21T09:31:49.628Z,95.50
2018-05-21T09:32:53.773Z,95.40
2018-05-21T09:33:57.930Z,95.90
2018-05-21T09:35:02.118Z,95.90
2018-05-21T09:36:06.318Z,95.80
2018-05-21T09:37:10.463Z,95.10
2018-05-21T09:38:14.643Z,95.20
2018-05-21T09:39:18.787Z,95.10
2018-05-21T09:40:22.937Z,95.50
2018-05-21T09:41:27.848Z,94.60
2018-05-21T09:42:33.497Z,94.30
2018-05-21T09:43:37.813Z,94.30
2018-05-21T09:44:41.970Z,94.50
2018-05-21T09:45:46.114Z,94.70
2018-05-21T09:46:51.136Z,94.20
2018-05-21T09:47:55.283Z,94.20
2018-05-21T09:49:00.274Z,95.10
2018-05-21T09:50:04.425Z,95.20
2018-05-21T09:51:09.368Z,94.90
2018-05-21T09:52:13.513Z,94.80
2018-05-21T09:53:17.658Z,94.90
2018-05-21T09:54:21.979Z,94.50
2018-05-21T09:55:26.158Z,94.20
2018-05-21T09:56:30.314Z,93.60
2018-05-21T09:57:35.213Z,93.70
2018-05-21T09:58:39.366Z,93.70
2018-05-21T09:59:43.798Z,93.70
2018-05-21T10:00:53.430Z,93.10
2018-05-21T10:01:57.569Z,93.00
2018-05-21T10:03:01.705Z,93.10
2018-05-21T10:04:06.638Z,92.70
2018-05-21T10:05:11.686Z,93.00
2018-05-21T10:06:15.834Z,92.90
2018-05-21T10:07:19.994Z,93.40
2018-05-21T10:08:24.900Z,92.80
2018-05-21T10:09:29.057Z,92.80
2018-05-21T10:10:33.263Z,92.80
2018-05-21T10:11:37.406Z,92.70
2018-05-21T10:12:41.553Z,92.20
2018-05-21T10:13:46.465Z,91.60
2018-05-21T10:14:50.612Z,91.50
2018-05-21T10:15:54.994Z,91.30
2018-05-21T10:16:59.132Z,91.60
2018-05-21T10:18:03.274Z,91.40
2018-05-21T10:19:07.426Z,91.10
2018-05-21T10:20:12.350Z,90.50
2018-05-21T10:21:16.563Z,90.50
2018-05-21T10:22:21.549Z,90.60
2018-05-21T10:23:25.696Z,90.60
2018-05-21T10:24:29.905Z,90.20
2018-05-21T10:25:34.082Z,90.20
2018-05-21T10:26:38.227Z,90.60
2018-05-21T10:27:42.373Z,90.20
2018-05-21T10:28:46.550Z,89.90
2018-05-21T10:29:51.471Z,89.60
2018-05-21T10:30:55.612Z,89.60
2018-05-21T10:31:59.985Z,89.90
2018-05-21T10:33:04.125Z,90.20
2018-05-21T10:34:08.280Z,87.60
2018-05-21T10:35:12.430Z,88.80
2018-05-21T10:36:17.341Z,84.70
2018-05-21T10:37:23.117Z,82.70
2018-05-21T10:38:27.277Z,82.70
2018-05-21T10:39:31.430Z,82.70
2018-05-21T10:40:36.343Z,85.00
2018-05-21T10:41:40.494Z,84.20
2018-05-21T10:42:44.871Z,83.20
2018-05-21T10:43:49.839Z,83.90
2018-05-21T10:44:54.008Z,83.90
2018-05-21T10:45:58.148Z,83.50
2018-05-21T10:47:02.293Z,82.10
2018-05-21T10:48:06.483Z,82.00
2018-05-21T10:49:10.620Z,81.30
2018-05-21T10:50:15.561Z,80.00
2018-05-21T10:51:19.911Z,79.90
2018-05-21T10:52:24.801Z,81.80
2018-05-21T10:53:30.448Z,81.00
2018-05-21T10:54:34.597Z,80.90
2018-05-21T10:55:38.742Z,80.90
2018-05-21T10:56:42.924Z,80.20
2018-05-21T10:57:47.094Z,80.90
2018-05-21T10:58:51.237Z,78.70
2018-05-21T10:59:55.379Z,80.90
2018-05-21T11:00:59.555Z,81.40
2018-05-21T11:02:03.845Z,81.50
2018-05-21T11:03:08.763Z,80.10
2018-05-21T11:04:13.725Z,81.70
2018-05-21T11:05:17.881Z,81.70
2018-05-21T11:06:23.538Z,81.20
2018-05-21T11:07:28.666Z,75.60
2018-05-21T11:08:34.344Z,74.10
2018-05-21T11:09:38.479Z,74.00
2018-05-21T11:10:42.629Z,72.40
2018-05-21T11:11:46.772Z,72.40
2018-05-21T11:12:51.158Z,72.40
2018-05-21T11:13:55.292Z,73.10
2018-05-21T11:14:59.442Z,74.10
2018-05-21T11:16:03.589Z,75.00
2018-05-21T11:17:08.509Z,78.20
2018-05-21T11:18:12.831Z,78.10
2018-05-21T11:19:16.963Z,73.00
2018-05-21T11:20:21.127Z,73.50
2018-05-21T11:21:25.282Z,71.70
2018-05-21T11:22:29.427Z,71.00
2018-05-21T11:23:33.593Z,71.20
2018-05-21T11:24:38.581Z,70.90
2018-05-21T11:25:42.689Z,70.70
2018-05-21T11:26:46.840Z,69.30
2018-05-21T11:27:51.757Z,73.30
2018-05-21T11:28:56.699Z,73.20
2018-05-21T11:30:01.627Z,74.10
2018-05-21T11:31:05.786Z,74.00
2018-05-21T11:32:09.937Z,74.20
2018-05-21T11:33:14.855Z,72.70
2018-05-21T11:34:19.802Z,72.10
2018-05-21T11:35:24.724Z,71.60
2018-05-21T11:36:28.867Z,71.60
2018-05-21T11:37:33.036Z,71.20
2018-05-21T11:38:38.005Z,74.80
2018-05-21T11:39:42.170Z,74.00
2018-05-21T11:40:47.089Z,73.70
2018-05-21T11:41:52.028Z,73.80
2018-05-21T11:42:57.068Z,75.00
2018-05-21T11:44:01.981Z,76.40
2018-05-21T11:45:07.301Z,74.20
2018-05-21T11:46:11.446Z,74.10
2018-05-21T11:47:16.353Z,72.00
2018-05-21T11:48:20.509Z,72.10
2018-05-21T11:49:24.656Z,73.40
2018-05-21T11:50:28.881Z,72.50
2018-05-21T11:51:33.025Z,71.30
2018-05-21T11:52:37.169Z,72.10
2018-05-21T11:53:41.313Z,70.20
2018-05-21T11:54:46.225Z,71.70
2018-05-21T11:55:50.421Z,71.60
2018-05-21T11:56:54.562Z,71.60
2018-05-21T11:57:59.503Z,70.60
2018-05-21T11:59:04.412Z,70.20
2018-05-21T12:00:09.335Z,70.20
2018-05-21T12:01:13.510Z,70.00
2018-05-21T12:02:17.859Z,69.50
2018-05-21T12:03:22.008Z,70.30
2018-05-21T12:04:26.158Z,70.90
2018-05-21T12:05:30.327Z,71.80
2018-05-21T12:06:34.554Z,71.70
2018-05-21T12:07:39.005Z,71.60
2018-05-21T12:08:43.086Z,70.80
2018-05-21T12:09:47.227Z,70.60
2018-05-21T12:10:51.376Z,70.90
2018-05-21T12:11:55.522Z,69.80
2018-05-21T12:12:59.725Z,69.80
2018-05-21T12:14:03.906Z,70.10
2018-05-21T12:15:08.074Z,69.30
2018-05-21T12:16:12.214Z,69.30
2018-05-21T12:17:16.357Z,69.10
2018-05-21T12:18:20.718Z,68.80
2018-05-21T12:19:25.653Z,70.10
2018-05-21T12:20:30.561Z,70.40
2018-05-21T12:21:34.713Z,70.30
2018-05-21T12:22:38.848Z,67.70
2018-05-21T12:23:43.101Z,68.70
2018-05-21T12:24:47.190Z,66.20
2018-05-21T12:25:51.809Z,66.00
2018-05-21T12:26:56.717Z,64.80
2018-05-21T12:28:00.861Z,64.90
2018-05-21T12:29:05.013Z,66.20
2018-05-21T12:30:09.165Z,67.30
2018-05-21T12:31:13.370Z,66.70
2018-05-21T12:32:19.113Z,67.60
2018-05-21T12:33:23.256Z,67.60
2018-05-21T12:34:28.173Z,67.70
2018-05-21T12:35:32.391Z,67.70
2018-05-21T12:36:37.737Z,66.10
2018-05-21T12:37:42.641Z,66.10
2018-05-21T12:38:47.546Z,66.10
2018-05-21T12:39:51.719Z,66.20
2018-05-21T12:40:55.874Z,67.70
2018-05-21T12:42:00.188Z,67.70
2018-05-21T12:43:04.276Z,68.70
2018-05-21T12:44:08.432Z,68.80
2018-05-21T12:45:13.349Z,68.50
2018-05-21T12:46:17.514Z,68.50
2018-05-21T12:47:22.083Z,68.70
2018-05-21T12:48:26.997Z,69.50
2018-05-21T12:49:31.159Z,68.70
2018-05-21T12:50:35.309Z,69.80
2018-05-21T12:51:39.459Z,68.30
2018-05-21T12:52:44.752Z,66.20
2018-05-21T12:53:48.909Z,66.20
2018-05-21T12:54:53.053Z,66.50
2018-05-21T12:55:57.205Z,67.10
2018-05-21T12:57:02.108Z,67.10
2018-05-21T12:58:07.081Z,66.80
2018-05-21T12:59:11.248Z,66.80
2018-05-21T13:00:16.933Z,66.00
2018-05-21T13:01:22.576Z,65.80
2018-05-21T13:02:26.732Z,65.70
2018-05-21T13:03:30.894Z,66.30
2018-05-21T13:04:35.057Z,66.80
2018-05-21T13:05:39.224Z,67.40
2018-05-21T13:06:43.557Z,66.90
2018-05-21T13:07:47.710Z,67.70
2018-05-21T13:08:51.860Z,68.20
2018-05-21T13:09:55.996Z,68.40
2018-05-21T13:11:00.152Z,68.50
2018-05-21T13:12:05.107Z,67.20
2018-05-21T13:13:09.286Z,67.20
2018-05-21T13:14:14.218Z,65.70
2018-05-21T13:15:18.383Z,65.70
2018-05-21T13:16:22.547Z,66.70
2018-05-21T13:17:27.658Z,67.90
2018-05-21T13:18:31.806Z,67.90
2018-05-21T13:19:35.957Z,67.60
2018-05-21T13:20:40.104Z,67.30
2018-05-21T13:21:45.013Z,68.30
2018-05-21T13:22:49.176Z,69.10
2018-05-21T13:23:53.380Z,68.00
2018-05-21T13:24:57.537Z,68.10
2018-05-21T13:26:01.689Z,68.70
2018-05-21T13:27:05.836Z,68.60
2018-05-21T13:28:09.981Z,69.00
2018-05-21T13:29:14.905Z,70.40
2018-05-21T13:30:19.834Z,69.40
2018-05-21T13:31:25.165Z,69.10
2018-05-21T13:32:30.081Z,70.30
2018-05-21T13:33:34.229Z,69.50
2018-05-21T13:34:38.907Z,69.50
2018-05-21T13:35:43.013Z,69.80
2018-05-21T13:36:47.184Z,69.70
2018-05-21T13:37:51.325Z,68.80
2018-05-21T13:38:55.493Z,69.40
2018-05-21T13:39:59.641Z,67.90
2018-05-21T13:41:03.791Z,66.40
2018-05-21T13:42:08.701Z,69.00
2018-05-21T13:43:14.441Z,67.60
2018-05-21T13:44:18.548Z,67.60
2018-05-21T13:45:22.689Z,68.40
2018-05-21T13:46:27.631Z,67.30
2018-05-21T13:47:31.789Z,67.30
2018-05-21T13:48:35.941Z,68.50
2018-05-21T13:49:41.332Z,68.30
2018-05-21T13:50:45.482Z,68.30
2018-05-21T13:51:50.396Z,68.00